createdAt,value
2019-03-29T00:02:31.932Z,13.68
2019-03-29T00:07:39.736Z,13.70
2019-03-29T00:12:39.036Z,13.70
2019-03-29T00:17:41.768Z,13.67
2019-03-29T00:22:44.408Z,13.62
2019-03-29T00:27:46.998Z,13.59
2019-03-29T00:32:49.636Z,13.59
2019-03-29T00:37:53.864Z,13.58
2019-03-29T00:42:56.696Z,13.55
2019-03-29T00:47:59.282Z,13.56
2019-03-29T00:53:01.898Z,13.52
2019-03-29T00:58:04.607Z,13.50
2019-03-29T01:03:07.261Z,13.57
2019-03-29T01:08:10.793Z,13.56
2019-03-29T01:13:13.576Z,13.44
2019-03-29T01:18:16.173Z,13.51
2019-03-29T01:23:18.799Z,13.56
2019-03-29T01:28:21.702Z,13.57
2019-03-29T01:33:25.060Z,13.53
2019-03-29T01:38:28.176Z,13.54
2019-03-29T01:43:31.865Z,13.54
2019-03-29T01:48:34.548Z,13.56
2019-03-29T01:53:37.294Z,13.50
2019-03-29T01:58:40.721Z,13.46
2019-03-29T02:03:44.740Z,13.35
2019-03-29T02:08:47.300Z,13.41
2019-03-29T02:13:49.909Z,13.43
2019-03-29T02:18:52.535Z,13.45
2019-03-29T02:23:55.172Z,13.47
2019-03-29T02:28:57.716Z,13.49
2019-03-29T02:34:00.290Z,13.48
2019-03-29T02:39:03.974Z,13.46
2019-03-29T02:44:07.611Z,13.44
2019-03-29T02:49:12.630Z,13.42
2019-03-29T02:54:15.230Z,13.35
2019-03-29T02:59:17.774Z,13.35
2019-03-29T03:04:20.438Z,13.42
2019-03-29T03:09:23.095Z,13.41
2019-03-29T03:14:25.733Z,13.35
2019-03-29T03:19:28.329Z,13.35
2019-03-29T03:24:31.063Z,13.40
2019-03-29T03:29:33.658Z,13.43
2019-03-29T03:34:36.168Z,13.44
2019-03-29T03:39:38.842Z,13.43
2019-03-29T03:44:41.499Z,13.46
2019-03-29T03:49:44.136Z,13.43
2019-03-29T03:54:46.764Z,13.40
2019-03-29T03:59:53.420Z,13.36
2019-03-29T04:04:56.076Z,13.31
2019-03-29T04:10:01.116Z,13.32
2019-03-29T04:15:05.713Z,13.30
2019-03-29T04:20:10.595Z,13.35
2019-03-29T04:25:13.353Z,13.37
2019-03-29T04:30:16.053Z,13.32
2019-03-29T04:35:18.712Z,13.34
2019-03-29T04:40:21.373Z,13.34
2019-03-29T04:45:25.857Z,13.38
2019-03-29T04:50:29.739Z,13.39
2019-03-29T04:55:33.627Z,13.35
2019-03-29T05:00:36.273Z,13.36
2019-03-29T05:05:38.954Z,13.37
2019-03-29T05:10:41.635Z,13.33
2019-03-29T05:15:44.263Z,13.29
2019-03-29T05:20:46.889Z,13.40
2019-03-29T05:25:49.547Z,13.39
2019-03-29T05:30:52.068Z,13.32
2019-03-29T05:35:54.737Z,13.33
2019-03-29T05:40:57.415Z,13.35
2019-03-29T05:46:00.029Z,13.40
2019-03-29T05:51:03.889Z,13.43
2019-03-29T05:56:07.646Z,13.49
2019-03-29T06:01:10.321Z,13.44
2019-03-29T06:06:12.992Z,13.42
2019-03-29T06:11:15.589Z,13.49
2019-03-29T06:16:18.209Z,13.47
2019-03-29T06:21:20.988Z,13.55
2019-03-29T06:26:23.604Z,13.45
2019-03-29T06:31:26.191Z,13.50
2019-03-29T06:36:30.328Z,13.46
2019-03-29T06:41:32.977Z,13.51
2019-03-29T06:46:35.624Z,13.42
2019-03-29T06:51:38.308Z,13.32
2019-03-29T06:56:41.002Z,13.46
2019-03-29T07:01:46.301Z,13.59
2019-03-29T07:06:50.617Z,13.71
2019-03-29T07:11:53.270Z,13.78
2019-03-29T07:16:55.943Z,13.76
2019-03-29T07:21:58.671Z,13.74
2019-03-29T07:27:01.394Z,13.78
2019-03-29T07:32:04.105Z,13.89
2019-03-29T07:37:06.746Z,13.94
2019-03-29T07:42:09.396Z,14.05
2019-03-29T07:47:12.068Z,14.04
2019-03-29T07:52:14.741Z,14.08
2019-03-29T07:57:21.198Z,14.09
2019-03-29T08:02:23.882Z,14.23
2019-03-29T08:07:28.127Z,14.27
2019-03-29T08:12:31.256Z,14.38
2019-03-29T08:17:34.011Z,14.42
2019-03-29T08:22:37.788Z,14.58
2019-03-29T08:27:40.396Z,14.47
2019-03-29T08:32:43.003Z,14.61
2019-03-29T08:37:45.632Z,14.73
2019-03-29T08:42:48.238Z,14.83
2019-03-29T08:47:50.817Z,14.86
2019-03-29T08:52:57.003Z,14.89
2019-03-29T08:57:59.729Z,14.98
2019-03-29T09:03:02.444Z,15.10
2019-03-29T09:08:05.065Z,15.19
2019-03-29T09:13:07.764Z,15.10
2019-03-29T09:18:10.599Z,15.24
2019-03-29T09:23:13.214Z,15.42
2019-03-29T09:28:16.187Z,15.48
2019-03-29T09:33:20.984Z,15.60
2019-03-29T09:38:23.505Z,15.62
2019-03-29T09:43:26.779Z,15.76
2019-03-29T09:48:30.257Z,15.73
2019-03-29T09:53:32.945Z,15.71
2019-03-29T09:58:35.547Z,15.66
2019-03-29T10:03:38.240Z,15.65
2019-03-29T10:08:40.887Z,15.64
2019-03-29T10:13:43.491Z,15.67
2019-03-29T10:18:46.206Z,15.64
2019-03-29T10:23:48.789Z,15.62
2019-03-29T10:28:51.459Z,15.75
2019-03-29T10:33:54.119Z,15.78
2019-03-29T10:38:56.693Z,15.89
2019-03-29T10:43:59.687Z,16.03
2019-03-29T10:49:02.292Z,16.17
2019-03-29T10:54:04.908Z,16.21
2019-03-29T10:59:07.505Z,16.32
2019-03-29T11:04:10.415Z,16.34
2019-03-29T11:09:13.044Z,16.45
2019-03-29T11:14:15.720Z,16.53
2019-03-29T11:19:18.380Z,16.52
2019-03-29T11:24:21.021Z,16.62
2019-03-29T11:29:24.038Z,16.83
2019-03-29T11:34:26.656Z,16.99
2019-03-29T11:39:29.241Z,16.95
2019-03-29T11:44:31.858Z,17.05
2019-03-29T11:49:34.435Z,17.11
2019-03-29T11:54:36.981Z,17.03
2019-03-29T11:59:40.290Z,17.23
2019-03-29T12:04:43.139Z,17.29
2019-03-29T12:09:45.783Z,17.28
2019-03-29T12:14:48.454Z,17.30
2019-03-29T12:19:51.100Z,17.27
2019-03-29T12:24:53.702Z,17.32
2019-03-29T12:29:56.307Z,17.33
2019-03-29T12:34:58.791Z,17.31
2019-03-29T12:40:01.470Z,17.40
2019-03-29T12:45:04.930Z,17.17
2019-03-29T12:50:08.523Z,17.01
2019-03-29T12:55:11.211Z,17.22
2019-03-29T13:00:14.460Z,17.06
2019-03-29T13:05:17.152Z,17.01
2019-03-29T13:10:19.797Z,16.96
2019-03-29T13:15:23.639Z,16.85
2019-03-29T13:20:26.451Z,16.73
2019-03-29T13:25:29.054Z,16.73
2019-03-29T13:30:31.970Z,16.89
2019-03-29T13:35:35.078Z,16.98
2019-03-29T13:40:37.732Z,17.11
2019-03-29T13:45:40.377Z,17.09
2019-03-29T13:50:42.941Z,16.94
2019-03-29T13:55:45.550Z,16.90
2019-03-29T14:00:48.224Z,17.01
2019-03-29T14:05:50.853Z,16.96
2019-03-29T14:10:53.567Z,16.84
2019-03-29T14:15:56.205Z,16.61
2019-03-29T14:21:00.055Z,16.71
2019-03-29T14:26:04.594Z,16.73
2019-03-29T14:31:07.172Z,16.72
2019-03-29T14:36:09.774Z,16.69
2019-03-29T14:41:12.386Z,16.71
2019-03-29T14:46:14.976Z,16.65
2019-03-29T14:51:17.605Z,16.53
2019-03-29T14:56:20.273Z,16.56
2019-03-29T15:01:22.799Z,16.53
2019-03-29T15:06:25.497Z,16.47
2019-03-29T15:11:28.111Z,16.29
2019-03-29T15:16:30.747Z,16.26
2019-03-29T15:21:33.363Z,16.29
2019-03-29T15:26:35.995Z,16.19
2019-03-29T15:31:38.663Z,16.15
2019-03-29T15:36:41.291Z,16.11
2019-03-29T15:41:43.925Z,16.14
2019-03-29T15:46:46.509Z,16.20
2019-03-29T15:51:49.116Z,16.14
2019-03-29T15:56:51.815Z,16.07
2019-03-29T16:01:54.524Z,16.00
2019-03-29T16:06:57.108Z,16.03
2019-03-29T16:12:01.073Z,15.93
2019-03-29T16:17:03.710Z,15.92
2019-03-29T16:22:06.374Z,15.94
2019-03-29T16:27:09.135Z,15.96
2019-03-29T16:32:11.782Z,15.75
2019-03-29T16:37:16.272Z,15.72
2019-03-29T16:42:18.909Z,15.75
2019-03-29T16:47:21.532Z,15.66
2019-03-29T16:52:24.181Z,15.72
2019-03-29T16:57:26.878Z,15.65
2019-03-29T17:02:29.556Z,15.58
2019-03-29T17:07:32.337Z,15.53
2019-03-29T17:12:35.240Z,15.57
2019-03-29T17:17:37.900Z,15.59
2019-03-29T17:22:43.279Z,15.54
2019-03-29T17:27:51.996Z,15.46
2019-03-29T17:32:57.808Z,15.41
2019-03-29T17:38:00.464Z,15.38
2019-03-29T17:43:03.089Z,15.30
2019-03-29T17:48:05.804Z,15.22
2019-03-29T17:53:08.375Z,15.12
2019-03-29T17:58:11.082Z,15.02
2019-03-29T18:03:13.753Z,14.92
2019-03-29T18:08:16.368Z,14.82
2019-03-29T18:13:19.055Z,14.73
2019-03-29T18:18:29.554Z,14.63
2019-03-29T18:23:32.147Z,14.54
2019-03-29T18:28:38.120Z,14.43
2019-03-29T18:33:43.213Z,14.35
2019-03-29T18:38:46.688Z,14.24
2019-03-29T18:43:49.455Z,14.17
2019-03-29T18:48:52.086Z,14.08
2019-03-29T18:53:54.797Z,13.99
2019-03-29T18:58:57.296Z,13.92
2019-03-29T19:04:00.014Z,13.83
2019-03-29T19:09:03.980Z,13.79
2019-03-29T19:14:06.700Z,13.71
2019-03-29T19:19:10.474Z,13.63
2019-03-29T19:24:13.524Z,13.55
2019-03-29T19:29:16.153Z,13.48
2019-03-29T19:34:18.851Z,13.41
2019-03-29T19:39:21.527Z,13.34
2019-03-29T19:44:24.143Z,13.29
2019-03-29T19:49:26.791Z,13.25
2019-03-29T19:54:29.331Z,13.24
2019-03-29T19:59:32.014Z,13.20
2019-03-29T20:04:34.671Z,13.15
2019-03-29T20:09:37.363Z,13.12
2019-03-29T20:14:42.115Z,13.06
2019-03-29T20:19:44.756Z,13.10
2019-03-29T20:24:47.414Z,12.96
2019-03-29T20:29:52.187Z,12.99
2019-03-29T20:34:54.777Z,13.00
2019-03-29T20:39:57.378Z,12.88
2019-03-29T20:44:59.874Z,12.84
2019-03-29T20:50:02.862Z,12.74
2019-03-29T20:55:05.738Z,12.67
2019-03-29T21:00:10.122Z,12.64
2019-03-29T21:05:12.702Z,12.65
2019-03-29T21:10:15.721Z,12.66
2019-03-29T21:15:18.445Z,12.66
2019-03-29T21:20:21.113Z,12.66
2019-03-29T21:25:24.086Z,12.66
2019-03-29T21:30:26.666Z,12.59
2019-03-29T21:35:29.380Z,12.55
2019-03-29T21:40:31.966Z,12.60
2019-03-29T21:45:34.596Z,12.58
2019-03-29T21:50:37.202Z,12.54
2019-03-29T21:55:39.807Z,12.48
2019-03-29T22:00:44.220Z,12.42
2019-03-29T22:05:46.903Z,12.39
2019-03-29T22:10:49.696Z,12.36
2019-03-29T22:15:52.310Z,12.27
2019-03-29T22:20:56.165Z,12.26
2019-03-29T22:25:58.866Z,12.23
2019-03-29T22:31:01.496Z,12.18
2019-03-29T22:36:04.139Z,12.17
2019-03-29T22:41:06.721Z,12.12
2019-03-29T22:46:09.320Z,12.13
2019-03-29T22:51:11.975Z,12.08
2019-03-29T22:56:14.570Z,12.02
2019-03-29T23:01:17.749Z,11.98
2019-03-29T23:06:20.361Z,11.96
2019-03-29T23:11:22.999Z,11.95
2019-03-29T23:16:25.619Z,11.93
2019-03-29T23:21:28.274Z,11.90
2019-03-29T23:26:32.146Z,11.84
2019-03-29T23:31:34.768Z,11.83
2019-03-29T23:36:37.411Z,11.77
2019-03-29T23:41:40.039Z,11.67
2019-03-29T23:46:42.726Z,11.74
2019-03-29T23:51:45.333Z,11.72
2019-03-29T23:56:47.980Z,11.73
